LTBU/TEQ METAR and TAF weather

Enter ICAO airport designator
Station Type Date Time Source
LTBU METAR 2019/04/19 07:50 UTC NOAA

LTBU 190750Z 33011KT 9999 BKN035 10/02 Q1023


Station Type Date Time Source
LTBU Decoded METAR 2019/04/19 07:50 UTC NOAA

Corlu, Turkey (LTBU) 41-08N 027-55E
Apr 19, 2019 - 03:50 AM EDT / 2019.04.19 0750 UTC
Wind: from the NNW (330 degrees) at 13 MPH (11 KT):0
Visibility: greater than 7 mile(s):0
Sky conditions: mostly cloudy
Temperature: 50 F (10 C)
Dew Point: 35 F (2 C)
Relative Humidity: 57%
Pressure (altimeter): 30.21 in. Hg (1023 hPa)
ob: LTBU 190750Z 33011KT 9999 BKN035 10/02 Q1023
cycle: 8

Station Type Date Time Source
LTBU TAF 2019/04/19 06:03 UTC NOAA

TAF COR LTBU 190440Z 1906/2006 03012KT 9999 SCT040
BECMG 1912/1915 VRB02KT
BECMG 1916/1918 03012KT BKN020
TEMPO 1918/1922 4000 -SHRA BR PROB30 2000/2004 3200 BR BKN014 BKN020
TEMPO 2004/2006 -SHRA

Example: see airport list